createdAt,value
2022-11-25T00:00:20.455Z,4.06
2022-11-25T00:01:20.468Z,4.04
2022-11-25T00:02:20.602Z,4.03
2022-11-25T00:03:20.535Z,4.03
2022-11-25T00:04:20.495Z,4.04
2022-11-25T00:05:20.504Z,4.03
2022-11-25T00:06:20.514Z,4.12
2022-11-25T00:07:20.565Z,4.00
2022-11-25T00:08:20.532Z,4.14
2022-11-25T00:09:20.543Z,4.12
2022-11-25T00:10:20.554Z,4.14
2022-11-25T00:11:20.564Z,4.13
2022-11-25T00:12:20.574Z,4.12
2022-11-25T00:13:20.583Z,4.21
2022-11-25T00:14:20.596Z,4.16
2022-11-25T00:15:20.604Z,4.16
2022-11-25T00:16:20.678Z,4.18
2022-11-25T00:17:20.625Z,4.16
2022-11-25T00:18:20.636Z,4.22
2022-11-25T00:19:20.644Z,4.21
2022-11-25T00:20:20.655Z,4.21
2022-11-25T00:21:20.667Z,4.21
2022-11-25T00:22:20.675Z,4.22
2022-11-25T00:23:20.684Z,4.25
2022-11-25T00:24:20.694Z,4.22
2022-11-25T00:25:20.704Z,4.21
2022-11-25T00:26:20.714Z,4.22
2022-11-25T00:27:20.724Z,4.22
2022-11-25T00:28:20.745Z,4.24
2022-11-25T00:29:20.745Z,4.22
2022-11-25T00:30:20.756Z,4.28
2022-11-25T00:31:20.829Z,4.30
2022-11-25T00:32:20.777Z,4.27
2022-11-25T00:33:20.786Z,4.28
2022-11-25T00:34:20.795Z,4.24
2022-11-25T00:35:20.806Z,4.21
2022-11-25T00:36:20.815Z,4.25
2022-11-25T00:37:20.828Z,4.24
2022-11-25T00:38:20.836Z,4.25
2022-11-25T00:39:20.846Z,4.25
2022-11-25T00:40:20.858Z,4.34
2022-11-25T00:41:20.865Z,4.32
2022-11-25T00:42:20.880Z,4.38
2022-11-25T00:43:20.889Z,4.38
2022-11-25T00:44:20.898Z,4.36
2022-11-25T00:45:20.907Z,4.31
2022-11-25T00:46:20.976Z,4.28
2022-11-25T00:47:20.928Z,4.31
2022-11-25T00:48:20.938Z,4.21
2022-11-25T00:49:20.949Z,4.32
2022-11-25T00:50:20.961Z,4.20
2022-11-25T00:51:20.969Z,4.28
2022-11-25T00:52:20.980Z,4.27
2022-11-25T00:53:20.992Z,4.31
2022-11-25T00:54:21.001Z,4.32
2022-11-25T00:55:21.014Z,4.38
2022-11-25T00:56:21.025Z,4.24
2022-11-25T00:57:21.031Z,4.31
2022-11-25T00:58:21.040Z,4.31
2022-11-25T00:59:21.051Z,4.36
2022-11-25T01:00:21.063Z,4.36
2022-11-25T01:01:21.159Z,4.40
2022-11-25T01:02:21.131Z,4.38
2022-11-25T01:03:21.094Z,4.34
2022-11-25T01:04:21.104Z,4.28
2022-11-25T01:05:21.114Z,4.30
2022-11-25T01:06:21.127Z,4.38
2022-11-25T01:07:21.184Z,4.27
2022-11-25T01:08:21.146Z,4.38
2022-11-25T01:09:21.157Z,4.42
2022-11-25T01:10:21.169Z,4.42
2022-11-25T01:11:21.174Z,4.34
2022-11-25T01:12:21.188Z,4.43
2022-11-25T01:13:21.198Z,4.38
2022-11-25T01:14:21.208Z,4.40
2022-11-25T01:15:21.214Z,4.39
2022-11-25T01:16:21.277Z,4.43
2022-11-25T01:17:21.238Z,4.45
2022-11-25T01:18:21.249Z,4.39
2022-11-25T01:19:21.257Z,4.42
2022-11-25T01:20:21.271Z,4.46
2022-11-25T01:21:21.278Z,4.42
2022-11-25T01:22:21.290Z,4.45
2022-11-25T01:23:21.300Z,4.39
2022-11-25T01:24:23.496Z,4.45
2022-11-25T01:25:21.326Z,4.46
2022-11-25T01:26:21.332Z,4.45
2022-11-25T01:27:21.341Z,4.49
2022-11-25T01:28:21.353Z,4.45
2022-11-25T01:29:21.371Z,4.46
2022-11-25T01:30:21.382Z,4.45
2022-11-25T01:31:21.477Z,4.43
2022-11-25T01:32:21.409Z,4.46
2022-11-25T01:33:21.403Z,4.40
2022-11-25T01:34:21.416Z,4.46
2022-11-25T01:35:21.424Z,4.48
2022-11-25T01:36:21.436Z,4.42
2022-11-25T01:37:21.445Z,4.45
2022-11-25T01:38:21.455Z,4.48
2022-11-25T01:39:23.512Z,4.48
2022-11-25T01:40:21.477Z,4.43
2022-11-25T01:41:21.488Z,4.48
2022-11-25T01:42:21.500Z,4.48
2022-11-25T01:43:21.507Z,4.48
2022-11-25T01:44:21.518Z,4.48
2022-11-25T01:45:21.604Z,4.49
2022-11-25T01:46:21.625Z,4.43
2022-11-25T01:47:21.551Z,4.46
2022-11-25T01:48:21.559Z,4.49
2022-11-25T01:49:21.570Z,4.49
2022-11-25T01:50:21.580Z,4.48
2022-11-25T01:51:21.587Z,4.46
2022-11-25T01:52:21.601Z,4.45
2022-11-25T01:53:21.611Z,4.46
2022-11-25T01:54:21.620Z,4.48
2022-11-25T01:55:21.632Z,4.40
2022-11-25T01:56:21.644Z,4.45
2022-11-25T01:57:21.652Z,4.45
2022-11-25T01:58:21.667Z,4.42
2022-11-25T01:59:21.672Z,4.40
2022-11-25T02:00:21.694Z,4.45
2022-11-25T02:01:21.824Z,4.46
2022-11-25T02:02:21.751Z,4.45
2022-11-25T02:03:21.713Z,4.39
2022-11-25T02:04:21.723Z,4.39
2022-11-25T02:05:21.736Z,4.48
2022-11-25T02:06:21.745Z,4.49
2022-11-25T02:07:21.821Z,4.43
2022-11-25T02:08:21.765Z,4.49
2022-11-25T02:09:21.778Z,4.49
2022-11-25T02:10:21.787Z,4.45
2022-11-25T02:11:21.799Z,4.45
2022-11-25T02:12:21.809Z,4.39
2022-11-25T02:13:21.818Z,4.48
2022-11-25T02:14:21.830Z,4.36
2022-11-25T02:15:21.841Z,4.42
2022-11-25T02:16:21.899Z,4.30
2022-11-25T02:17:21.860Z,4.34
2022-11-25T02:18:21.871Z,4.30
2022-11-25T02:19:21.878Z,4.34
2022-11-25T02:20:21.888Z,4.31
2022-11-25T02:21:21.904Z,4.27
2022-11-25T02:22:21.959Z,4.31
2022-11-25T02:23:21.919Z,4.27
2022-11-25T02:24:21.930Z,4.32
2022-11-25T02:25:21.939Z,4.34
2022-11-25T02:26:21.951Z,4.32
2022-11-25T02:27:21.961Z,4.31
2022-11-25T02:28:21.970Z,4.30
2022-11-25T02:29:21.982Z,4.31
2022-11-25T02:30:21.990Z,4.32
2022-11-25T02:31:22.067Z,4.32
2022-11-25T02:32:22.012Z,4.34
2022-11-25T02:33:22.026Z,4.27
2022-11-25T02:34:22.033Z,4.34
2022-11-25T02:35:22.044Z,4.39
2022-11-25T02:36:22.061Z,4.32
2022-11-25T02:37:22.065Z,4.30
2022-11-25T02:38:22.073Z,4.30
2022-11-25T02:39:22.084Z,4.28
2022-11-25T02:40:22.093Z,4.28
2022-11-25T02:41:22.107Z,4.25
2022-11-25T02:42:22.112Z,4.32
2022-11-25T02:43:22.127Z,4.30
2022-11-25T02:44:22.132Z,4.27
2022-11-25T02:45:22.166Z,4.31
2022-11-25T02:46:22.818Z,4.36
2022-11-25T02:47:22.166Z,4.31
2022-11-25T02:48:34.537Z,4.28
2022-11-25T02:49:22.184Z,4.30
2022-11-25T02:50:22.195Z,4.30
2022-11-25T02:51:22.207Z,4.38
2022-11-25T02:52:22.214Z,4.18
2022-11-25T02:53:22.230Z,4.38
2022-11-25T02:54:22.258Z,4.28
2022-11-25T02:55:22.246Z,4.32
2022-11-25T02:56:22.257Z,4.40
2022-11-25T02:57:22.268Z,4.34
2022-11-25T02:58:22.277Z,4.30
2022-11-25T02:59:22.285Z,4.38
2022-11-25T03:00:22.296Z,4.34
2022-11-25T03:01:22.351Z,4.31
2022-11-25T03:02:22.368Z,4.22
2022-11-25T03:03:22.328Z,4.32
2022-11-25T03:04:22.338Z,4.28
2022-11-25T03:05:22.354Z,4.30
2022-11-25T03:06:22.357Z,4.32
2022-11-25T03:07:22.459Z,4.28
2022-11-25T03:08:22.380Z,4.32
2022-11-25T03:09:22.390Z,4.32
2022-11-25T03:10:22.401Z,4.31
2022-11-25T03:11:22.409Z,4.32
2022-11-25T03:12:22.418Z,4.34
2022-11-25T03:13:22.430Z,4.30
2022-11-25T03:14:22.439Z,4.31
2022-11-25T03:15:22.454Z,4.32
2022-11-25T03:16:22.541Z,4.39
2022-11-25T03:17:22.471Z,4.43
2022-11-25T03:18:22.480Z,4.31
2022-11-25T03:19:22.489Z,4.38
2022-11-25T03:20:22.498Z,4.30
2022-11-25T03:21:22.510Z,4.32
2022-11-25T03:22:22.521Z,4.42
2022-11-25T03:23:22.530Z,4.34
2022-11-25T03:24:22.544Z,4.32
2022-11-25T03:25:22.551Z,4.30
2022-11-25T03:26:22.564Z,4.30
2022-11-25T03:27:22.572Z,4.32
2022-11-25T03:28:22.584Z,4.31
2022-11-25T03:29:22.593Z,4.34
2022-11-25T03:30:22.602Z,4.36
2022-11-25T03:31:22.662Z,4.36
2022-11-25T03:32:22.623Z,4.34
2022-11-25T03:33:22.652Z,4.31
2022-11-25T03:34:22.650Z,4.31
2022-11-25T03:35:22.659Z,4.30
2022-11-25T03:36:22.671Z,4.30
2022-11-25T03:37:22.732Z,4.27
2022-11-25T03:38:22.682Z,4.34
2022-11-25T03:39:22.692Z,4.38
2022-11-25T03:40:22.703Z,4.28
2022-11-25T03:41:22.713Z,4.28
2022-11-25T03:42:22.722Z,4.22
2022-11-25T03:43:22.734Z,4.27
2022-11-25T03:44:22.744Z,4.21
2022-11-25T03:45:22.754Z,4.24
2022-11-25T03:46:22.793Z,4.32
2022-11-25T03:47:22.778Z,4.31
2022-11-25T03:48:22.785Z,4.30
2022-11-25T03:49:22.793Z,4.39
2022-11-25T03:50:22.805Z,4.31
2022-11-25T03:51:22.816Z,4.39
2022-11-25T03:52:22.825Z,4.30
2022-11-25T03:53:22.835Z,4.34
2022-11-25T03:54:22.845Z,4.27
2022-11-25T03:55:22.856Z,4.24
2022-11-25T03:56:22.866Z,4.24
2022-11-25T03:57:22.873Z,4.32
2022-11-25T03:58:22.886Z,4.36
2022-11-25T03:59:22.895Z,4.32
2022-11-25T04:00:22.904Z,4.36
2022-11-25T04:01:22.992Z,4.30
2022-11-25T04:02:22.983Z,4.22
2022-11-25T04:03:22.935Z,4.31
2022-11-25T04:04:22.945Z,4.32
2022-11-25T04:05:22.961Z,4.34
2022-11-25T04:06:22.968Z,4.27
2022-11-25T04:07:23.030Z,4.30
2022-11-25T04:08:22.986Z,4.34
2022-11-25T04:09:23.000Z,4.20
2022-11-25T04:10:23.008Z,4.36
2022-11-25T04:11:23.017Z,4.27
2022-11-25T04:12:23.028Z,4.32
2022-11-25T04:13:23.037Z,4.28
2022-11-25T04:14:23.047Z,4.27
2022-11-25T04:15:23.058Z,4.30
2022-11-25T04:16:23.074Z,4.27
2022-11-25T04:17:23.081Z,4.34
2022-11-25T04:18:23.088Z,4.39
2022-11-25T04:19:23.098Z,4.38
2022-11-25T04:20:23.110Z,4.31
2022-11-25T04:21:23.119Z,4.40
2022-11-25T04:22:23.131Z,4.34
2022-11-25T04:23:23.140Z,4.30
2022-11-25T04:24:23.149Z,4.38
2022-11-25T04:25:23.160Z,4.31
2022-11-25T04:26:23.170Z,4.32
2022-11-25T04:27:23.179Z,4.36
2022-11-25T04:28:23.204Z,4.36
2022-11-25T04:29:23.205Z,4.32
2022-11-25T04:30:23.217Z,4.27
2022-11-25T04:31:23.222Z,4.24
2022-11-25T04:32:23.230Z,4.34
2022-11-25T04:33:23.245Z,4.22
2022-11-25T04:34:23.258Z,4.24
2022-11-25T04:35:23.273Z,4.32
2022-11-25T04:36:23.272Z,4.34
2022-11-25T04:37:23.287Z,4.28
2022-11-25T04:38:23.291Z,4.32
2022-11-25T04:39:23.300Z,4.32
2022-11-25T04:40:23.311Z,4.38
2022-11-25T04:41:23.323Z,4.30
2022-11-25T04:42:23.332Z,4.31
2022-11-25T04:43:23.342Z,4.34
2022-11-25T04:44:23.351Z,4.38
2022-11-25T04:45:24.062Z,4.34
2022-11-25T04:46:23.433Z,4.31
2022-11-25T04:47:23.385Z,4.38
2022-11-25T04:48:23.394Z,4.42
2022-11-25T04:49:23.404Z,4.38
2022-11-25T04:50:23.415Z,4.38
2022-11-25T04:51:23.422Z,4.34
2022-11-25T04:52:23.432Z,4.27
2022-11-25T04:53:23.446Z,4.31
2022-11-25T04:54:23.454Z,4.38
2022-11-25T04:55:23.464Z,4.27
2022-11-25T04:56:23.473Z,4.39
2022-11-25T04:57:23.483Z,4.34
2022-11-25T04:58:23.498Z,4.34
2022-11-25T04:59:23.506Z,4.34
2022-11-25T05:00:23.513Z,4.27
2022-11-25T05:01:23.574Z,4.43
2022-11-25T05:02:23.560Z,4.38
2022-11-25T05:03:23.543Z,4.32
2022-11-25T05:04:23.555Z,4.38
2022-11-25T05:05:23.567Z,4.36
2022-11-25T05:06:23.574Z,4.39
2022-11-25T05:07:23.607Z,4.40
2022-11-25T05:08:23.594Z,4.43
2022-11-25T05:09:23.605Z,4.36
2022-11-25T05:10:23.617Z,4.39
2022-11-25T05:11:23.627Z,4.38
2022-11-25T05:12:23.635Z,4.30
2022-11-25T05:13:23.650Z,4.31
2022-11-25T05:14:23.657Z,4.32
2022-11-25T05:15:23.665Z,4.39
2022-11-25T05:16:23.726Z,4.40
2022-11-25T05:17:23.686Z,4.39
2022-11-25T05:18:23.701Z,4.43
2022-11-25T05:19:23.709Z,4.46
2022-11-25T05:20:23.718Z,4.40
2022-11-25T05:21:23.727Z,4.42
2022-11-25T05:22:23.739Z,4.39
2022-11-25T05:23:23.748Z,4.38
2022-11-25T05:24:23.757Z,4.36
2022-11-25T05:25:23.768Z,4.39
2022-11-25T05:26:23.779Z,4.38
2022-11-25T05:27:23.790Z,4.39
2022-11-25T05:28:23.800Z,4.42
2022-11-25T05:29:23.808Z,4.40
2022-11-25T05:30:23.958Z,4.43
2022-11-25T05:31:23.828Z,4.32
2022-11-25T05:32:23.845Z,4.40
2022-11-25T05:33:23.850Z,4.45
2022-11-25T05:34:23.860Z,4.42
2022-11-25T05:35:23.870Z,4.43
2022-11-25T05:36:23.880Z,4.38
2022-11-25T05:37:24.717Z,4.45
2022-11-25T05:38:23.901Z,4.42
2022-11-25T05:39:23.911Z,4.43
2022-11-25T05:40:23.921Z,4.42
2022-11-25T05:41:23.932Z,4.40
2022-11-25T05:42:23.941Z,4.36
2022-11-25T05:43:23.954Z,4.39
2022-11-25T05:44:23.962Z,4.40
2022-11-25T05:45:23.972Z,4.39
2022-11-25T05:46:24.055Z,4.46
2022-11-25T05:47:23.994Z,4.45
2022-11-25T05:48:24.004Z,4.40
2022-11-25T05:49:24.012Z,4.38
2022-11-25T05:50:24.026Z,4.43
2022-11-25T05:51:24.034Z,4.34
2022-11-25T05:52:24.045Z,4.42
2022-11-25T05:53:24.077Z,4.43
2022-11-25T05:54:24.065Z,4.28
2022-11-25T05:55:24.073Z,4.40
2022-11-25T05:56:24.086Z,4.40
2022-11-25T05:57:24.095Z,4.39
2022-11-25T05:58:24.105Z,4.43
2022-11-25T05:59:24.115Z,4.43
2022-11-25T06:00:26.781Z,4.40
2022-11-25T06:01:24.137Z,4.40
2022-11-25T06:02:24.207Z,4.32
2022-11-25T06:03:24.209Z,4.40
2022-11-25T06:04:24.168Z,4.36
2022-11-25T06:05:24.176Z,4.32
2022-11-25T06:06:24.187Z,4.27
2022-11-25T06:07:24.347Z,4.25
2022-11-25T06:08:24.209Z,4.25
2022-11-25T06:09:24.217Z,4.31
2022-11-25T06:10:24.227Z,4.34
2022-11-25T06:11:24.238Z,4.21
2022-11-25T06:12:24.249Z,4.25
2022-11-25T06:13:24.258Z,4.25
2022-11-25T06:14:24.270Z,4.21
2022-11-25T06:15:24.278Z,4.20
2022-11-25T06:16:24.347Z,4.18
2022-11-25T06:17:24.297Z,4.03
2022-11-25T06:18:24.307Z,4.07
2022-11-25T06:19:24.320Z,4.10
2022-11-25T06:20:24.328Z,4.00
2022-11-25T06:21:24.338Z,4.02
2022-11-25T06:22:24.348Z,3.92
2022-11-25T06:23:24.358Z,3.89
2022-11-25T06:24:24.367Z,3.91
2022-11-25T06:25:24.381Z,3.84
2022-11-25T06:26:24.386Z,3.84
2022-11-25T06:27:24.396Z,3.81
2022-11-25T06:28:24.408Z,3.74
2022-11-25T06:29:24.417Z,3.78
2022-11-25T06:30:24.425Z,3.73
2022-11-25T06:31:24.525Z,3.66
2022-11-25T06:32:24.444Z,3.53
2022-11-25T06:33:24.455Z,3.52
2022-11-25T06:34:24.463Z,3.59
2022-11-25T06:35:24.473Z,3.52
2022-11-25T06:36:24.484Z,3.53
2022-11-25T06:37:24.494Z,3.46
2022-11-25T06:38:24.504Z,3.45
2022-11-25T06:39:24.513Z,3.41
2022-11-25T06:40:24.524Z,3.43
2022-11-25T06:41:24.529Z,3.26
2022-11-25T06:42:24.540Z,3.31
2022-11-25T06:43:24.552Z,3.31
2022-11-25T06:44:24.560Z,3.30
2022-11-25T06:45:24.568Z,3.33
2022-11-25T06:46:25.415Z,3.22
2022-11-25T06:47:24.585Z,3.18
2022-11-25T06:48:24.597Z,3.22
2022-11-25T06:49:24.608Z,3.19
2022-11-25T06:50:24.616Z,3.18
2022-11-25T06:51:24.655Z,3.11
2022-11-25T06:52:24.638Z,3.12
2022-11-25T06:53:24.645Z,3.16
2022-11-25T06:54:24.654Z,3.03
2022-11-25T06:55:24.660Z,3.06
2022-11-25T06:56:24.675Z,3.15
2022-11-25T06:57:24.681Z,3.06
2022-11-25T06:58:35.276Z,3.05
2022-11-25T06:59:24.698Z,3.09
2022-11-25T07:00:24.708Z,3.03
2022-11-25T07:01:24.798Z,3.01
2022-11-25T07:02:24.753Z,3.01
2022-11-25T07:03:24.873Z,3.03
2022-11-25T07:04:24.751Z,3.00
2022-11-25T07:05:24.754Z,2.93
2022-11-25T07:06:24.764Z,2.98
2022-11-25T07:07:24.862Z,2.95
2022-11-25T07:08:27.280Z,3.03
2022-11-25T07:09:24.792Z,3.06
2022-11-25T07:10:24.799Z,2.95
2022-11-25T07:11:24.809Z,3.00
2022-11-25T07:12:24.819Z,2.95
2022-11-25T07:13:24.829Z,2.93
2022-11-25T07:14:24.836Z,2.97
2022-11-25T07:15:24.846Z,3.01
2022-11-25T07:16:24.912Z,2.91
2022-11-25T07:17:24.864Z,3.00
2022-11-25T07:18:24.873Z,3.01
2022-11-25T07:19:24.881Z,2.97
2022-11-25T07:20:24.890Z,3.03
2022-11-25T07:21:24.899Z,3.01
2022-11-25T07:22:24.910Z,2.94
2022-11-25T07:23:24.919Z,2.95
2022-11-25T07:24:24.926Z,3.06
2022-11-25T07:25:30.466Z,3.05
2022-11-25T07:26:24.944Z,3.16
2022-11-25T07:27:24.954Z,3.05
2022-11-25T07:28:24.968Z,3.05
2022-11-25T07:31:28.607Z,3.21
2022-11-25T07:32:25.001Z,3.16
2022-11-25T07:33:25.039Z,3.31
2022-11-25T07:34:25.019Z,3.26
2022-11-25T07:35:25.030Z,3.18
2022-11-25T07:36:25.040Z,3.21
2022-11-25T07:37:25.049Z,3.33
2022-11-25T07:38:25.063Z,3.29
2022-11-25T07:39:25.085Z,3.36
2022-11-25T07:40:25.086Z,3.40
2022-11-25T07:41:25.112Z,3.34
2022-11-25T07:42:25.098Z,3.43
2022-11-25T07:43:25.108Z,3.43
2022-11-25T07:44:25.116Z,3.46
2022-11-25T07:45:25.129Z,3.49
2022-11-25T07:46:27.055Z,3.49
2022-11-25T07:47:25.150Z,3.48
2022-11-25T07:48:25.162Z,3.50
2022-11-25T07:49:25.164Z,3.55
2022-11-25T07:50:25.172Z,3.67
2022-11-25T07:51:25.180Z,3.67
2022-11-25T07:52:25.201Z,3.63
2022-11-25T07:53:25.202Z,3.59
2022-11-25T07:54:25.212Z,3.71
2022-11-25T07:55:25.221Z,3.68
2022-11-25T07:56:25.230Z,3.71
2022-11-25T07:57:25.240Z,3.82
2022-11-25T07:58:25.251Z,3.78
2022-11-25T07:59:25.259Z,3.89
2022-11-25T08:00:25.270Z,3.84
2022-11-25T08:01:25.367Z,3.85
2022-11-25T08:02:25.326Z,3.89
2022-11-25T08:03:25.300Z,3.84
2022-11-25T08:04:25.312Z,3.91
2022-11-25T08:05:25.322Z,3.89
2022-11-25T08:06:25.333Z,3.91
2022-11-25T08:07:25.381Z,3.94
2022-11-25T08:08:25.351Z,3.89
2022-11-25T08:09:25.374Z,3.89
2022-11-25T08:10:25.369Z,3.94
2022-11-25T08:11:25.383Z,3.91
2022-11-25T08:12:25.393Z,3.94
2022-11-25T08:13:25.401Z,3.94
2022-11-25T08:14:25.411Z,3.89
2022-11-25T08:15:25.418Z,3.92
2022-11-25T08:16:25.467Z,3.91
2022-11-25T08:17:25.439Z,3.94
2022-11-25T08:18:25.451Z,3.95
2022-11-25T08:19:31.103Z,3.94
2022-11-25T08:20:25.498Z,3.95
2022-11-25T08:21:25.480Z,3.94
2022-11-25T08:22:25.490Z,3.94
2022-11-25T08:23:25.499Z,3.92
2022-11-25T08:24:25.508Z,3.92
2022-11-25T08:25:25.531Z,3.92
2022-11-25T08:26:25.530Z,3.92
2022-11-25T08:27:25.539Z,3.89
2022-11-25T08:28:25.548Z,3.92
2022-11-25T08:29:25.555Z,3.86
2022-11-25T08:30:25.567Z,3.95
2022-11-25T08:31:25.638Z,3.94
2022-11-25T08:32:25.589Z,4.03
2022-11-25T08:33:25.596Z,4.03
2022-11-25T08:34:25.607Z,4.03
2022-11-25T08:35:25.616Z,3.96
2022-11-25T08:36:25.626Z,4.06
2022-11-25T08:37:25.646Z,4.13
2022-11-25T08:38:25.647Z,4.04
2022-11-25T08:40:25.667Z,4.07
2022-11-25T08:41:25.677Z,4.14
2022-11-25T08:42:25.687Z,4.16
2022-11-25T08:43:29.367Z,4.06
2022-11-25T08:44:25.707Z,4.22
2022-11-25T08:45:25.721Z,4.22
2022-11-25T08:46:25.762Z,4.27
2022-11-25T08:47:25.737Z,4.24
2022-11-25T08:48:25.747Z,4.24
2022-11-25T08:49:25.755Z,4.31
2022-11-25T08:50:25.772Z,4.24
2022-11-25T08:51:25.778Z,4.34
2022-11-25T08:52:25.806Z,4.34
2022-11-25T08:53:25.798Z,4.28
2022-11-25T08:54:25.810Z,4.36
2022-11-25T08:55:25.818Z,4.30
2022-11-25T08:56:26.484Z,4.31
2022-11-25T08:57:25.842Z,4.42
2022-11-25T08:58:25.851Z,4.43
2022-11-25T08:59:25.860Z,4.45
2022-11-25T09:00:25.871Z,4.45
2022-11-25T09:01:25.898Z,4.50
2022-11-25T09:02:25.943Z,4.53
2022-11-25T09:03:25.966Z,4.63
2022-11-25T09:04:25.909Z,4.61
2022-11-25T09:05:25.925Z,4.60
2022-11-25T09:06:25.933Z,4.70
2022-11-25T09:07:30.569Z,4.79
2022-11-25T09:08:25.950Z,4.70
2022-11-25T09:09:25.961Z,4.71
2022-11-25T09:10:25.972Z,4.86
2022-11-25T09:11:26.085Z,4.83
2022-11-25T09:12:25.994Z,4.89
2022-11-25T09:13:26.001Z,4.90
2022-11-25T09:14:26.066Z,4.89
2022-11-25T09:15:26.023Z,4.90
2022-11-25T09:16:26.959Z,4.95
2022-11-25T09:17:26.047Z,5.02
2022-11-25T09:18:26.064Z,5.04
2022-11-25T09:19:26.066Z,5.04
2022-11-25T09:20:26.076Z,5.05
2022-11-25T09:21:26.085Z,5.10
2022-11-25T09:22:26.096Z,5.12
2022-11-25T09:23:26.117Z,5.16
2022-11-25T09:24:26.118Z,5.18
2022-11-25T09:25:26.130Z,5.18
2022-11-25T09:26:26.139Z,5.20
2022-11-25T09:27:26.164Z,5.20
2022-11-25T09:28:26.161Z,5.31
2022-11-25T09:29:26.175Z,5.23
2022-11-25T09:30:26.182Z,5.31
2022-11-25T09:31:26.232Z,5.25
2022-11-25T09:32:26.207Z,5.23
2022-11-25T09:33:26.224Z,5.40
2022-11-25T09:34:26.226Z,5.38
2022-11-25T09:35:26.236Z,5.36
2022-11-25T09:36:26.245Z,5.33
2022-11-25T09:37:26.256Z,5.29
2022-11-25T09:38:26.269Z,5.34
2022-11-25T09:39:26.279Z,5.40
2022-11-25T09:40:26.290Z,5.44
2022-11-25T09:41:26.302Z,5.43
2022-11-25T09:42:26.313Z,5.46
2022-11-25T09:43:26.322Z,5.44
2022-11-25T09:44:26.335Z,5.44
2022-11-25T09:45:26.346Z,5.55
2022-11-25T09:46:26.394Z,5.59
2022-11-25T09:47:26.365Z,5.61
2022-11-25T09:48:26.378Z,5.56
2022-11-25T09:49:26.389Z,5.59
2022-11-25T09:50:26.401Z,5.54
2022-11-25T09:51:26.410Z,5.52
2022-11-25T09:52:26.419Z,5.61
2022-11-25T09:53:26.434Z,5.56
2022-11-25T09:54:26.444Z,5.67
2022-11-25T09:55:26.452Z,5.65
2022-11-25T09:56:26.464Z,5.64
2022-11-25T09:57:26.479Z,5.62
2022-11-25T09:58:26.486Z,5.65
2022-11-25T09:59:26.498Z,5.74
2022-11-25T10:00:26.510Z,5.79
2022-11-25T10:01:26.521Z,5.72
2022-11-25T10:02:26.735Z,5.80
2022-11-25T10:03:26.600Z,5.81
2022-11-25T10:04:26.553Z,5.79
2022-11-25T10:05:26.567Z,5.72
2022-11-25T10:06:26.626Z,5.74
2022-11-25T10:07:26.585Z,5.80
2022-11-25T10:08:26.599Z,5.83
2022-11-25T10:09:26.617Z,5.79
2022-11-25T10:10:26.620Z,5.83
2022-11-25T10:11:26.632Z,5.88
2022-11-25T10:12:26.643Z,5.81
2022-11-25T10:13:26.656Z,5.79
2022-11-25T10:14:26.672Z,5.81
2022-11-25T10:15:26.677Z,5.87
2022-11-25T10:16:26.726Z,5.88
2022-11-25T10:17:26.702Z,5.84
2022-11-25T10:18:26.711Z,5.95
2022-11-25T10:19:26.724Z,5.90
2022-11-25T10:20:26.735Z,5.95
2022-11-25T10:21:26.745Z,5.94
2022-11-25T10:22:26.758Z,5.97
2022-11-25T10:23:28.301Z,6.09
2022-11-25T10:24:26.782Z,5.99
2022-11-25T10:25:26.797Z,5.98
2022-11-25T10:26:26.805Z,6.09
2022-11-25T10:27:26.814Z,6.07
2022-11-25T10:28:26.826Z,6.07
2022-11-25T10:29:26.838Z,6.07
2022-11-25T10:30:26.850Z,6.05
2022-11-25T10:31:26.940Z,6.01
2022-11-25T10:32:26.873Z,6.05
2022-11-25T10:33:26.884Z,6.07
2022-11-25T10:34:26.897Z,6.07
2022-11-25T10:35:26.915Z,6.13
2022-11-25T10:36:26.919Z,6.09
2022-11-25T10:37:26.938Z,6.09
2022-11-25T10:38:26.945Z,6.17
2022-11-25T10:39:26.978Z,6.19
2022-11-25T10:40:26.970Z,6.20
2022-11-25T10:41:26.981Z,6.15
2022-11-25T10:42:26.990Z,6.16
2022-11-25T10:43:31.580Z,6.17
2022-11-25T10:44:27.027Z,6.22
2022-11-25T10:45:27.036Z,6.15
2022-11-25T10:46:43.329Z,6.17
2022-11-25T10:47:27.103Z,6.17
2022-11-25T10:48:27.060Z,6.13
2022-11-25T10:49:27.069Z,6.29
2022-11-25T10:50:27.084Z,6.31
2022-11-25T10:51:27.095Z,6.19
2022-11-25T10:52:27.105Z,6.31
2022-11-25T10:53:27.120Z,6.32
2022-11-25T10:54:28.063Z,6.29
2022-11-25T10:55:27.161Z,6.29
2022-11-25T10:56:27.155Z,6.38
2022-11-25T10:57:27.166Z,6.34
2022-11-25T10:58:27.175Z,6.41
2022-11-25T10:59:27.191Z,6.43
2022-11-25T11:00:27.200Z,6.43
2022-11-25T11:01:27.258Z,6.44
2022-11-25T11:02:27.256Z,6.41
2022-11-25T11:03:27.279Z,6.50
2022-11-25T11:04:27.247Z,6.47
2022-11-25T11:05:27.259Z,6.50
2022-11-25T11:06:27.272Z,6.47
2022-11-25T11:07:27.324Z,6.47
2022-11-25T11:08:27.308Z,6.44
2022-11-25T11:09:27.305Z,6.47
2022-11-25T11:10:27.323Z,6.49
2022-11-25T11:11:27.334Z,6.50
2022-11-25T11:12:27.341Z,6.50
2022-11-25T11:13:27.355Z,6.52
2022-11-25T11:14:27.367Z,6.56
2022-11-25T11:15:27.379Z,6.60
2022-11-25T11:16:27.467Z,6.62
2022-11-25T11:17:30.615Z,6.57
2022-11-25T11:18:27.417Z,6.56
2022-11-25T11:19:27.427Z,6.70
2022-11-25T11:20:27.437Z,6.62
2022-11-25T11:21:27.452Z,6.67
2022-11-25T11:22:27.461Z,6.65
2022-11-25T11:23:27.472Z,6.65
2022-11-25T11:24:27.483Z,6.67
2022-11-25T11:25:27.498Z,6.77
2022-11-25T11:26:27.511Z,6.80
2022-11-25T11:27:27.519Z,6.70
2022-11-25T11:28:27.534Z,6.82
2022-11-25T11:29:27.546Z,6.70
2022-11-25T11:30:27.558Z,6.75
2022-11-25T11:31:27.642Z,6.82
2022-11-25T11:32:27.581Z,6.77
2022-11-25T11:33:27.594Z,6.74
2022-11-25T11:34:27.606Z,6.77
2022-11-25T11:35:27.615Z,6.78
2022-11-25T11:36:27.629Z,6.77
2022-11-25T11:37:27.640Z,6.85
2022-11-25T11:38:27.655Z,6.80
2022-11-25T11:39:27.663Z,6.78
2022-11-25T11:40:27.679Z,6.77
2022-11-25T11:41:27.689Z,6.86
2022-11-25T11:42:27.700Z,6.86
2022-11-25T11:43:27.711Z,6.85
2022-11-25T11:44:27.724Z,6.83
2022-11-25T11:45:27.736Z,6.85
2022-11-25T11:46:27.778Z,6.90
2022-11-25T11:47:27.761Z,6.92
2022-11-25T11:48:27.774Z,6.85
2022-11-25T11:49:30.536Z,6.90
2022-11-25T11:50:27.794Z,6.92
2022-11-25T11:51:27.812Z,6.93
2022-11-25T11:52:27.822Z,6.89
2022-11-25T11:53:27.835Z,7.01
2022-11-25T11:54:27.846Z,6.92
2022-11-25T11:55:27.862Z,7.03
2022-11-25T11:56:35.444Z,7.05
2022-11-25T11:57:27.884Z,7.04
2022-11-25T11:58:27.893Z,7.01
2022-11-25T11:59:27.921Z,7.07
2022-11-25T12:00:27.916Z,7.04
2022-11-25T12:01:27.930Z,7.05
2022-11-25T12:02:28.008Z,7.05
2022-11-25T12:03:28.006Z,7.11
2022-11-25T12:04:27.972Z,7.07
2022-11-25T12:05:27.979Z,7.05
2022-11-25T12:06:27.990Z,7.07
2022-11-25T12:07:28.052Z,7.08
2022-11-25T12:08:28.016Z,7.08
2022-11-25T12:09:28.027Z,7.01
2022-11-25T12:10:28.039Z,7.04
2022-11-25T12:11:28.051Z,7.03
2022-11-25T12:12:28.064Z,7.04
2022-11-25T12:13:28.079Z,7.03
2022-11-25T12:14:28.089Z,7.03
2022-11-25T12:15:28.099Z,7.05
2022-11-25T12:16:28.160Z,7.05
2022-11-25T12:17:28.124Z,7.01
2022-11-25T12:18:28.138Z,7.05
2022-11-25T12:19:28.153Z,7.01
2022-11-25T12:20:28.159Z,7.04
2022-11-25T12:21:28.177Z,7.04
2022-11-25T12:22:28.185Z,7.04
2022-11-25T12:23:28.198Z,7.07
2022-11-25T12:24:28.210Z,7.05
2022-11-25T12:25:28.222Z,7.08
2022-11-25T12:26:28.235Z,7.10
2022-11-25T12:27:28.248Z,7.10
2022-11-25T12:28:28.265Z,7.08
2022-11-25T12:29:28.271Z,7.07
2022-11-25T12:30:28.282Z,7.08
2022-11-25T12:31:28.368Z,7.10
2022-11-25T12:32:28.307Z,7.08
2022-11-25T12:33:28.319Z,7.05
2022-11-25T12:34:28.332Z,7.04
2022-11-25T12:35:28.344Z,7.05
2022-11-25T12:36:28.354Z,7.10
2022-11-25T12:37:28.368Z,7.07
2022-11-25T12:38:28.380Z,7.10
2022-11-25T12:39:28.389Z,7.05
2022-11-25T12:40:28.405Z,7.04
2022-11-25T12:41:28.416Z,6.96
2022-11-25T12:42:28.432Z,6.95
2022-11-25T12:43:28.441Z,7.03
2022-11-25T12:44:28.451Z,7.03
2022-11-25T12:45:28.516Z,7.04
2022-11-25T12:46:28.481Z,7.07
2022-11-25T12:47:28.490Z,7.07
2022-11-25T12:48:28.505Z,7.04
2022-11-25T12:49:28.514Z,7.03
2022-11-25T12:50:28.674Z,7.01
2022-11-25T12:51:28.543Z,7.11
2022-11-25T12:52:28.551Z,7.08
2022-11-25T12:53:28.563Z,7.13
2022-11-25T12:54:28.575Z,7.10
2022-11-25T12:55:28.586Z,7.05
2022-11-25T12:56:28.604Z,7.22
2022-11-25T12:57:28.613Z,7.11
2022-11-25T12:58:28.688Z,7.07
2022-11-25T12:59:28.636Z,7.22
2022-11-25T13:00:43.779Z,7.18
2022-11-25T13:01:28.772Z,7.15
2022-11-25T13:02:28.752Z,7.19
2022-11-25T13:03:28.687Z,7.15
2022-11-25T13:04:28.700Z,7.26
2022-11-25T13:05:43.698Z,7.18
2022-11-25T13:06:28.729Z,7.18
2022-11-25T13:07:28.792Z,7.21
2022-11-25T13:08:28.749Z,7.13
2022-11-25T13:09:28.763Z,7.19
2022-11-25T13:10:28.776Z,7.18
2022-11-25T13:11:29.094Z,7.22
2022-11-25T13:12:29.140Z,7.14
2022-11-25T13:13:29.136Z,7.18
2022-11-25T13:14:29.306Z,7.15
2022-11-25T13:15:29.185Z,7.21
2022-11-25T13:16:29.237Z,7.23
2022-11-25T13:17:29.053Z,7.22
2022-11-25T13:18:28.878Z,7.22
2022-11-25T13:19:28.897Z,7.29
2022-11-25T13:20:28.917Z,7.26
2022-11-25T13:21:28.927Z,7.19